createdAt,value
2023-01-23T00:01:56.546Z,6.53
2023-01-23T00:04:29.488Z,5.95
2023-01-23T00:07:04.396Z,6.78
2023-01-23T00:09:37.285Z,5.35
2023-01-23T00:12:10.170Z,7.38
2023-01-23T00:14:43.329Z,6.85
2023-01-23T00:17:16.198Z,6.78
2023-01-23T00:19:49.075Z,6.30
2023-01-23T00:22:23.498Z,5.93
2023-01-23T00:24:56.501Z,8.73
2023-01-23T00:27:29.458Z,7.10
2023-01-23T00:30:02.414Z,6.15
2023-01-23T00:32:35.352Z,7.03
2023-01-23T00:35:08.892Z,8.63
2023-01-23T00:37:43.615Z,6.85
2023-01-23T00:40:17.293Z,6.55
2023-01-23T00:42:50.220Z,8.05
2023-01-23T00:45:23.156Z,7.32
2023-01-23T00:47:56.013Z,6.57
2023-01-23T00:50:28.892Z,6.88
2023-01-23T00:53:03.143Z,7.15
2023-01-23T00:55:36.077Z,6.70
2023-01-23T00:58:09.383Z,6.90
2023-01-23T01:00:42.555Z,6.90
2023-01-23T01:03:15.464Z,7.38
2023-01-23T01:05:49.091Z,6.72
2023-01-23T01:08:23.352Z,8.45
2023-01-23T01:10:56.430Z,7.20
2023-01-23T01:13:29.686Z,8.07
2023-01-23T01:16:02.673Z,8.05
2023-01-23T01:18:35.692Z,8.13
2023-01-23T01:21:09.629Z,7.32
2023-01-23T01:23:43.845Z,7.05
2023-01-23T01:26:16.983Z,7.25
2023-01-23T01:28:50.667Z,6.25
2023-01-23T01:31:24.010Z,6.35
2023-01-23T01:33:57.073Z,8.77
2023-01-23T01:36:30.005Z,6.90
2023-01-23T01:39:04.357Z,7.53
2023-01-23T01:41:37.387Z,6.85
2023-01-23T01:44:15.665Z,8.00
2023-01-23T01:46:49.531Z,7.53
2023-01-23T01:49:25.300Z,7.03
2023-01-23T01:52:02.095Z,7.63
2023-01-23T01:54:41.286Z,7.82
2023-01-23T01:57:19.719Z,7.55
2023-01-23T01:59:56.807Z,7.28
2023-01-23T02:02:32.835Z,8.25
2023-01-23T02:05:11.024Z,7.57
2023-01-23T02:07:49.735Z,8.05
2023-01-23T02:10:24.894Z,7.82
2023-01-23T02:13:12.609Z,7.82
2023-01-23T02:15:46.365Z,7.82
2023-01-23T02:18:19.382Z,8.27
2023-01-23T02:20:53.901Z,8.40
2023-01-23T02:23:36.235Z,8.52
2023-01-23T02:26:13.790Z,7.72
2023-01-23T02:28:48.709Z,7.93
2023-01-23T02:31:22.464Z,9.27
2023-01-23T02:33:57.400Z,8.65
2023-01-23T02:36:32.682Z,9.95
2023-01-23T02:39:09.524Z,10.05
2023-01-23T02:41:46.085Z,9.98
2023-01-23T02:44:21.328Z,9.68
2023-01-23T02:46:54.679Z,8.38
2023-01-23T02:49:28.044Z,8.77
2023-01-23T02:52:01.333Z,9.23
2023-01-23T02:54:34.320Z,9.27
2023-01-23T02:57:08.517Z,10.65
2023-01-23T02:59:58.774Z,9.77
2023-01-23T03:02:31.730Z,9.80
2023-01-23T03:05:04.795Z,11.38
2023-01-23T03:07:37.772Z,9.68
2023-01-23T03:10:13.182Z,11.25
2023-01-23T03:12:47.356Z,10.75
2023-01-23T03:15:20.203Z,10.07
2023-01-23T03:17:53.805Z,10.55
2023-01-23T03:20:28.739Z,11.18
2023-01-23T03:23:01.660Z,10.63
2023-01-23T03:25:34.682Z,10.45
2023-01-23T03:28:28.921Z,9.77
2023-01-23T03:31:00.832Z,10.25
2023-01-23T03:33:33.733Z,10.18
2023-01-23T03:36:08.420Z,11.20
2023-01-23T03:39:02.487Z,11.38
2023-01-23T03:41:34.398Z,10.90
2023-01-23T03:44:08.923Z,11.13
2023-01-23T03:46:42.062Z,10.90
2023-01-23T03:49:14.956Z,9.60
2023-01-23T03:51:47.914Z,10.60
2023-01-23T03:54:20.797Z,9.10
2023-01-23T03:56:53.788Z,9.90
2023-01-23T03:59:28.016Z,9.95
2023-01-23T04:02:01.436Z,9.32
2023-01-23T04:04:34.843Z,9.02
2023-01-23T04:07:08.494Z,9.40
2023-01-23T04:09:41.383Z,9.18
2023-01-23T04:12:14.736Z,9.43
2023-01-23T04:14:48.945Z,10.75
2023-01-23T04:17:21.899Z,10.57
2023-01-23T04:19:54.754Z,10.52
2023-01-23T04:22:27.836Z,11.18
2023-01-23T04:25:00.662Z,10.95
2023-01-23T04:27:33.844Z,10.63
2023-01-23T04:30:10.404Z,11.15
2023-01-23T04:32:43.423Z,11.25
2023-01-23T04:35:17.327Z,10.60
2023-01-23T04:37:50.204Z,9.32
2023-01-23T04:40:23.109Z,8.93
2023-01-23T04:42:56.275Z,9.02
2023-01-23T04:45:30.713Z,10.27
2023-01-23T04:48:03.916Z,13.38
2023-01-23T04:50:36.913Z,13.10
2023-01-23T04:53:09.854Z,11.20
2023-01-23T04:55:42.955Z,9.75
2023-01-23T04:58:16.207Z,10.00
2023-01-23T05:00:50.524Z,10.73
2023-01-23T05:03:23.370Z,9.55
2023-01-23T05:05:56.223Z,9.35
2023-01-23T05:08:29.203Z,10.68
2023-01-23T05:11:02.065Z,10.07
2023-01-23T05:13:35.163Z,10.27
2023-01-23T05:16:09.750Z,10.57
2023-01-23T05:18:42.673Z,11.43
2023-01-23T05:21:15.731Z,10.90
2023-01-23T05:23:48.709Z,11.13
2023-01-23T05:26:21.982Z,9.30
2023-01-23T05:28:54.855Z,9.80
2023-01-23T05:31:29.124Z,9.27
2023-01-23T05:34:02.168Z,8.95
2023-01-23T05:36:35.028Z,8.30
2023-01-23T05:39:07.937Z,9.93
2023-01-23T05:41:40.797Z,8.88
2023-01-23T05:44:13.912Z,11.50
2023-01-23T05:46:48.152Z,8.48
2023-01-23T05:49:21.046Z,8.27
2023-01-23T05:51:53.900Z,9.38
2023-01-23T05:54:26.866Z,8.68
2023-01-23T05:56:59.754Z,7.85
2023-01-23T05:59:32.944Z,8.68
2023-01-23T06:02:07.216Z,9.00
2023-01-23T06:04:40.606Z,9.27
2023-01-23T06:07:15.164Z,9.10
2023-01-23T06:09:48.249Z,8.38
2023-01-23T06:12:21.263Z,8.85
2023-01-23T06:14:54.169Z,9.48
2023-01-23T06:17:28.420Z,10.30
2023-01-23T06:20:01.301Z,8.40
2023-01-23T06:22:34.154Z,9.18
2023-01-23T06:25:08.102Z,7.32
2023-01-23T06:27:41.185Z,7.85
2023-01-23T06:30:14.766Z,8.30
2023-01-23T06:32:48.977Z,8.65
2023-01-23T06:35:22.590Z,9.60
2023-01-23T06:37:55.556Z,8.15
2023-01-23T06:40:28.413Z,7.28
2023-01-23T06:43:01.321Z,8.70
2023-01-23T06:45:34.271Z,7.10
2023-01-23T06:48:08.672Z,6.90
2023-01-23T06:50:42.496Z,7.35
2023-01-23T06:53:17.245Z,8.20
2023-01-23T06:55:50.161Z,8.65
2023-01-23T06:58:23.068Z,8.95
2023-01-23T07:00:56.160Z,8.88
2023-01-23T07:03:30.386Z,9.80
2023-01-23T07:06:06.721Z,8.88
2023-01-23T07:08:40.315Z,9.70
2023-01-23T07:11:13.333Z,9.35
2023-01-23T07:13:46.195Z,9.18
2023-01-23T07:16:19.171Z,9.95
2023-01-23T07:18:54.036Z,9.57
2023-01-23T07:21:27.175Z,10.13
2023-01-23T07:24:00.120Z,9.55
2023-01-23T07:26:33.071Z,10.48
2023-01-23T07:29:07.253Z,9.05
2023-01-23T07:31:40.165Z,12.32
2023-01-23T07:34:15.378Z,10.63
2023-01-23T07:36:48.536Z,9.82
2023-01-23T07:39:21.490Z,10.02
2023-01-23T07:41:54.486Z,10.00
2023-01-23T07:44:27.586Z,9.88
2023-01-23T07:47:00.562Z,10.00
2023-01-23T07:49:34.892Z,8.60
2023-01-23T07:52:07.869Z,9.32
2023-01-23T07:54:41.061Z,10.77
2023-01-23T07:57:14.010Z,9.13
2023-01-23T07:59:48.606Z,8.10
2023-01-23T08:02:21.605Z,7.45
2023-01-23T08:04:55.892Z,7.80
2023-01-23T08:07:28.860Z,8.15
2023-01-23T08:10:01.735Z,7.05
2023-01-23T08:12:35.201Z,8.55
2023-01-23T08:15:09.301Z,6.45
2023-01-23T08:17:42.201Z,6.97
2023-01-23T08:20:17.401Z,8.05
2023-01-23T08:22:50.473Z,6.43
2023-01-23T08:25:23.338Z,6.72
2023-01-23T08:27:56.395Z,6.85
2023-01-23T08:30:29.391Z,6.75
2023-01-23T08:33:04.724Z,6.38
2023-01-23T08:35:39.023Z,6.60
2023-01-23T08:38:11.945Z,6.07
2023-01-23T08:40:44.822Z,6.07
2023-01-23T08:43:18.958Z,6.70
2023-01-23T08:45:53.517Z,6.90
2023-01-23T08:48:28.389Z,6.60
2023-01-23T08:51:05.066Z,7.00
2023-01-23T08:53:38.507Z,7.88
2023-01-23T08:56:16.951Z,6.90
2023-01-23T08:58:51.134Z,6.32
2023-01-23T09:01:25.706Z,6.97
2023-01-23T09:03:58.617Z,7.30
2023-01-23T09:06:32.814Z,7.70
2023-01-23T09:09:05.827Z,8.38
2023-01-23T09:11:38.685Z,9.77
2023-01-23T09:14:11.625Z,10.02
2023-01-23T09:16:44.637Z,7.90
2023-01-23T09:19:17.639Z,8.43
2023-01-23T09:21:53.982Z,9.23
2023-01-23T09:24:26.869Z,9.05
2023-01-23T09:26:59.772Z,9.32
2023-01-23T09:29:32.753Z,8.55
2023-01-23T09:32:05.907Z,10.63
2023-01-23T09:34:38.852Z,8.05
2023-01-23T09:37:13.162Z,9.73
2023-01-23T09:39:46.177Z,10.65
2023-01-23T09:42:22.100Z,9.55
2023-01-23T09:44:58.442Z,9.57
2023-01-23T09:47:37.672Z,9.65
2023-01-23T09:50:19.507Z,8.85
2023-01-23T09:53:00.120Z,9.13
2023-01-23T09:55:42.292Z,9.05
2023-01-23T09:58:23.372Z,10.95
2023-01-23T10:00:56.372Z,9.98
2023-01-23T10:03:33.049Z,9.40
2023-01-23T10:06:20.285Z,8.25
2023-01-23T10:09:09.160Z,10.75
2023-01-23T10:11:51.695Z,11.57
2023-01-23T10:15:02.584Z,8.90
2023-01-23T10:17:43.020Z,9.25
2023-01-23T10:20:30.360Z,9.57
2023-01-23T10:23:09.100Z,10.35
2023-01-23T10:25:44.023Z,12.13
2023-01-23T10:28:27.918Z,11.27
2023-01-23T10:31:05.076Z,11.88
2023-01-23T10:33:44.122Z,11.02
2023-01-23T10:36:25.323Z,13.18
2023-01-23T10:39:03.975Z,12.00
2023-01-23T10:41:39.259Z,11.55
2023-01-23T10:44:16.757Z,11.85
2023-01-23T10:46:53.819Z,12.60
2023-01-23T10:49:32.723Z,10.98
2023-01-23T10:52:06.280Z,12.30
2023-01-23T10:54:48.051Z,11.05
2023-01-23T10:57:26.587Z,11.25
2023-01-23T11:00:04.555Z,12.55
2023-01-23T11:02:39.126Z,11.93
2023-01-23T11:05:50.314Z,13.00
2023-01-23T11:08:27.743Z,9.27
2023-01-23T11:11:25.453Z,10.90
2023-01-23T11:14:13.913Z,11.95
2023-01-23T11:16:46.789Z,10.77
2023-01-23T11:19:24.241Z,11.85
2023-01-23T11:21:59.700Z,11.20
2023-01-23T11:24:43.172Z,10.77
2023-01-23T11:27:23.671Z,12.10
2023-01-23T11:30:26.207Z,13.18
2023-01-23T11:33:00.683Z,12.95
2023-01-23T11:35:51.157Z,13.43
2023-01-23T11:38:31.337Z,9.65
2023-01-23T11:41:05.642Z,11.48
2023-01-23T11:43:38.883Z,14.68
2023-01-23T11:46:24.518Z,13.40
2023-01-23T11:49:13.419Z,11.77
2023-01-23T11:51:58.591Z,10.15
2023-01-23T11:54:46.882Z,10.98
2023-01-23T11:57:26.946Z,12.18
2023-01-23T12:00:17.528Z,10.98
2023-01-23T12:03:43.441Z,10.18
2023-01-23T12:06:34.715Z,10.40
2023-01-23T12:09:12.302Z,11.45
2023-01-23T12:11:58.212Z,10.27
2023-01-23T12:14:42.998Z,11.15
2023-01-23T12:17:27.540Z,9.60
2023-01-23T12:20:27.156Z,9.82
2023-01-23T12:23:09.829Z,11.02
2023-01-23T12:25:47.151Z,10.52
2023-01-23T12:28:46.291Z,9.90
2023-01-23T12:31:34.533Z,9.60
2023-01-23T12:34:27.767Z,9.85
2023-01-23T12:37:29.047Z,8.98
2023-01-23T12:40:11.395Z,9.88
2023-01-23T12:42:54.216Z,9.40
2023-01-23T12:45:29.485Z,8.80
2023-01-23T12:48:08.503Z,9.77
2023-01-23T12:50:47.472Z,11.52
2023-01-23T12:53:24.110Z,9.38
2023-01-23T12:56:03.135Z,9.15
2023-01-23T12:58:38.832Z,11.45
2023-01-23T13:01:22.742Z,9.90
2023-01-23T13:04:11.555Z,10.65
2023-01-23T13:06:58.069Z,8.75
2023-01-23T13:09:45.624Z,10.23
2023-01-23T13:12:23.221Z,9.10
2023-01-23T13:15:38.748Z,12.07
2023-01-23T13:18:28.237Z,10.95
2023-01-23T13:21:21.983Z,10.27
2023-01-23T13:24:40.127Z,10.50
2023-01-23T13:27:36.298Z,11.80
2023-01-23T13:30:41.815Z,11.77
2023-01-23T13:33:58.831Z,11.80
2023-01-23T13:36:38.058Z,10.10
2023-01-23T13:39:29.958Z,11.20
2023-01-23T13:42:35.020Z,11.38
2023-01-23T13:45:31.789Z,10.60
2023-01-23T14:20:52.860Z,11.68
2023-01-23T14:23:30.865Z,12.70
2023-01-23T14:26:05.483Z,12.00
2023-01-23T14:28:38.427Z,12.02
2023-01-23T14:31:24.021Z,12.70
2023-01-23T14:34:09.754Z,14.02
2023-01-23T14:36:47.266Z,12.90
2023-01-23T14:39:23.103Z,12.57
2023-01-23T14:42:02.034Z,12.65
2023-01-23T14:44:43.428Z,12.00
2023-01-23T14:47:19.606Z,13.23
2023-01-23T14:49:53.853Z,12.18
2023-01-23T14:52:29.983Z,13.02
2023-01-23T14:55:07.980Z,15.52
2023-01-23T14:57:41.630Z,14.20
2023-01-23T15:00:17.960Z,14.63
2023-01-23T15:02:51.376Z,14.15
2023-01-23T15:05:27.039Z,12.93
2023-01-23T15:08:04.216Z,13.32
2023-01-23T15:10:45.593Z,13.70
2023-01-23T15:13:24.471Z,14.73
2023-01-23T15:15:59.689Z,14.30
2023-01-23T15:18:36.121Z,14.38
2023-01-23T15:21:10.154Z,15.40
2023-01-23T15:24:01.688Z,13.15
2023-01-23T15:26:38.813Z,15.07
2023-01-23T15:29:20.879Z,16.13
2023-01-23T15:31:55.681Z,15.27
2023-01-23T15:34:31.894Z,16.08
2023-01-23T15:37:08.340Z,13.95
2023-01-23T15:39:51.772Z,13.23
2023-01-23T15:42:33.140Z,13.27
2023-01-23T15:45:14.646Z,14.10
2023-01-23T15:47:47.511Z,12.70
2023-01-23T15:50:20.505Z,12.68
2023-01-23T15:52:54.866Z,13.88
2023-01-23T15:55:30.479Z,12.13
2023-01-23T15:58:03.667Z,12.77
2023-01-23T16:00:38.457Z,13.38
2023-01-23T16:03:14.614Z,13.15
2023-01-23T16:05:47.712Z,12.43
2023-01-23T16:08:23.144Z,11.13
2023-01-23T16:10:57.470Z,10.95
2023-01-23T16:13:30.327Z,11.98
2023-01-23T16:16:03.272Z,12.38
2023-01-23T16:18:36.148Z,12.65
2023-01-23T16:21:14.112Z,10.10
2023-01-23T16:23:48.013Z,13.38
2023-01-23T16:26:24.529Z,10.65
2023-01-23T16:29:12.312Z,11.45
2023-01-23T16:31:45.955Z,11.65
2023-01-23T16:34:18.951Z,11.40
2023-01-23T16:36:54.153Z,10.75
2023-01-23T16:39:30.463Z,12.82
2023-01-23T16:42:05.132Z,10.88
2023-01-23T16:44:37.989Z,10.40
2023-01-23T16:47:10.838Z,12.40
2023-01-23T16:49:51.959Z,9.07
2023-01-23T16:52:27.240Z,9.65
2023-01-23T16:55:00.215Z,10.65
2023-01-23T16:57:34.967Z,9.27
2023-01-23T17:00:11.076Z,8.77
2023-01-23T17:02:45.968Z,9.73
2023-01-23T17:05:20.130Z,8.93
2023-01-23T17:07:53.225Z,9.43
2023-01-23T17:10:37.865Z,8.27
2023-01-23T17:13:20.837Z,8.40
2023-01-23T17:15:56.337Z,8.18
2023-01-23T17:18:30.760Z,9.15
2023-01-23T17:21:05.703Z,8.05
2023-01-23T17:23:38.551Z,7.72
2023-01-23T17:26:17.195Z,10.05
2023-01-23T17:28:51.441Z,9.43
2023-01-23T17:31:27.686Z,9.18
2023-01-23T17:34:01.400Z,9.70
2023-01-23T17:36:34.637Z,9.90
2023-01-23T17:39:08.762Z,8.95
2023-01-23T17:41:41.628Z,10.80
2023-01-23T17:44:15.899Z,9.73
2023-01-23T17:46:49.091Z,9.95
2023-01-23T17:49:29.957Z,9.60
2023-01-23T17:52:03.422Z,9.90
2023-01-23T17:54:37.521Z,9.70
2023-01-23T17:57:10.510Z,9.20
2023-01-23T17:59:45.253Z,10.30
2023-01-23T18:02:28.520Z,8.68
2023-01-23T18:05:01.604Z,10.50
2023-01-23T18:07:48.468Z,10.38
2023-01-23T18:10:29.139Z,9.60
2023-01-23T18:13:14.887Z,10.68
2023-01-23T18:16:04.585Z,9.40
2023-01-23T18:18:40.560Z,10.48
2023-01-23T18:21:18.001Z,10.73
2023-01-23T18:23:51.507Z,10.57
2023-01-23T18:26:39.037Z,8.48
2023-01-23T18:29:23.337Z,11.38
2023-01-23T18:32:15.157Z,9.55
2023-01-23T18:34:54.551Z,11.85
2023-01-23T18:37:37.060Z,12.10
2023-01-23T18:40:18.173Z,10.35
2023-01-23T18:42:59.860Z,10.77
2023-01-23T18:45:33.850Z,10.90
2023-01-23T18:48:24.647Z,11.48
2023-01-23T18:51:13.235Z,9.50
2023-01-23T18:53:54.802Z,10.15
2023-01-23T18:56:37.499Z,9.52
2023-01-23T18:59:20.007Z,11.38
2023-01-23T19:01:55.034Z,9.93
2023-01-23T19:04:38.336Z,9.77
2023-01-23T19:07:18.319Z,9.40
2023-01-23T19:09:51.966Z,8.88
2023-01-23T19:12:31.285Z,10.57
2023-01-23T19:15:20.255Z,11.18
2023-01-23T19:18:05.366Z,9.90
2023-01-23T19:20:45.850Z,9.60
2023-01-23T19:23:31.604Z,9.68
2023-01-23T19:26:07.155Z,9.73
2023-01-23T19:28:40.558Z,8.93
2023-01-23T19:31:22.746Z,10.82
2023-01-23T19:33:56.834Z,9.38
2023-01-23T19:36:32.933Z,10.38
2023-01-23T19:39:06.899Z,8.90
2023-01-23T19:41:44.049Z,8.80
2023-01-23T19:44:18.444Z,8.80
2023-01-23T19:46:51.929Z,8.45
2023-01-23T19:49:26.429Z,9.70
2023-01-23T19:52:00.700Z,9.23
2023-01-23T19:54:33.748Z,8.98
2023-01-23T19:57:07.417Z,7.63
2023-01-23T19:59:40.336Z,9.07
2023-01-23T20:02:18.646Z,8.63
2023-01-23T20:04:51.571Z,9.68
2023-01-23T20:07:25.991Z,9.45
2023-01-23T20:09:58.975Z,9.85
2023-01-23T20:12:31.908Z,7.78
2023-01-23T20:15:05.101Z,8.43
2023-01-23T20:17:37.953Z,8.85
2023-01-23T20:20:13.205Z,8.02
2023-01-23T20:22:47.575Z,9.07
2023-01-23T20:25:21.329Z,9.18
2023-01-23T20:27:54.514Z,8.13
2023-01-23T20:30:28.543Z,8.00
2023-01-23T20:33:01.709Z,8.70
2023-01-23T20:35:38.428Z,7.55
2023-01-23T20:38:12.698Z,8.70
2023-01-23T20:40:45.572Z,7.30
2023-01-23T20:43:19.053Z,8.93
2023-01-23T20:45:53.595Z,8.55
2023-01-23T20:48:26.543Z,9.35
2023-01-23T20:50:59.387Z,7.53
2023-01-23T20:53:35.033Z,7.15
2023-01-23T20:56:09.896Z,7.50
2023-01-23T20:59:01.925Z,7.93
2023-01-23T21:04:31.097Z,7.18
2023-01-23T21:07:04.822Z,7.55
2023-01-23T21:09:39.085Z,7.57
2023-01-23T21:12:12.004Z,7.68
2023-01-23T21:14:44.961Z,8.88
2023-01-23T21:17:17.842Z,8.55
2023-01-23T21:19:50.756Z,8.30
2023-01-23T21:22:23.792Z,7.90
2023-01-23T21:24:58.134Z,9.05
2023-01-23T21:27:31.337Z,8.23
2023-01-23T21:30:04.645Z,7.75
2023-01-23T21:32:37.572Z,9.27
2023-01-23T21:35:10.722Z,8.43
2023-01-23T21:37:43.796Z,8.25
2023-01-23T21:40:18.531Z,8.43
2023-01-23T21:42:51.481Z,8.23
2023-01-23T21:45:25.411Z,7.25
2023-01-23T21:47:58.753Z,6.95
2023-01-23T21:50:31.862Z,7.63
2023-01-23T21:53:04.942Z,9.38
2023-01-23T21:55:39.228Z,8.80
2023-01-23T21:58:12.091Z,8.93
2023-01-23T22:01:17.298Z,8.45
2023-01-23T22:03:50.770Z,9.65
2023-01-23T22:06:23.973Z,8.88
2023-01-23T22:08:57.955Z,10.23
2023-01-23T22:11:32.608Z,10.18
2023-01-23T22:14:06.061Z,11.93
2023-01-23T22:16:54.587Z,10.10
2023-01-23T22:19:27.794Z,9.70
2023-01-23T22:22:00.885Z,9.52
2023-01-23T22:24:33.764Z,10.35
2023-01-23T22:27:08.109Z,9.70
2023-01-23T22:29:40.981Z,9.60
2023-01-23T22:32:13.963Z,9.75
2023-01-23T22:34:47.053Z,10.15
2023-01-23T22:37:22.085Z,9.32
2023-01-23T22:39:55.084Z,12.52
2023-01-23T22:42:29.363Z,10.18
2023-01-23T22:45:02.266Z,10.27
2023-01-23T22:47:35.131Z,9.77
2023-01-23T22:50:09.050Z,12.90
2023-01-23T22:52:42.925Z,10.82
2023-01-23T22:55:16.244Z,9.23
2023-01-23T22:57:53.429Z,9.85
2023-01-23T23:00:26.380Z,10.35
2023-01-23T23:02:59.242Z,9.35
2023-01-23T23:05:32.116Z,9.95
2023-01-23T23:08:05.372Z,9.25
2023-01-23T23:10:38.253Z,9.85
2023-01-23T23:13:12.588Z,9.07
2023-01-23T23:15:45.512Z,10.98
2023-01-23T23:18:18.439Z,11.15
2023-01-23T23:20:51.437Z,10.18
2023-01-23T23:23:24.284Z,10.77
2023-01-23T23:25:58.106Z,10.23
2023-01-23T23:28:33.160Z,9.00
2023-01-23T23:31:06.601Z,12.00
2023-01-23T23:33:39.779Z,11.77
2023-01-23T23:36:13.248Z,10.75
2023-01-23T23:38:47.279Z,10.75
2023-01-23T23:41:20.664Z,11.35
2023-01-23T23:43:54.928Z,11.35
2023-01-23T23:46:28.137Z,11.85
2023-01-23T23:49:00.994Z,11.35
2023-01-23T23:51:34.018Z,10.27
2023-01-23T23:54:07.161Z,11.82
2023-01-23T23:56:40.162Z,11.32
2023-01-23T23:59:16.998Z,10.65
